Terminal Aerodrome Forecast
Issued by NWS Los Angeles, CA

Home | Current Version | Previous Version | Text Only | Print | Product List | Glossary On
Versions: 1 2 3 4 5 6 7 8 9 10 11 12 13 14 15 16 17 18 19 20 21
000
FTUS46 KLOX 011124
TAFSMX
TAF
KSMX 011124Z 0112/0212 VRB03KT 6SM BR OVC003
     FM011600 VRB03KT 6SM BR BKN007
     FM011800 30006KT P6SM SKC
     FM012200 30015KT P6SM SKC
     FM020300 30007KT 6SM BR BKN007
     FM020900 VRB03KT 4SM BR OVC005=

USA.gov is the U.S. government's official web portal to all federal, state and local government web resources and services.